TAF EHKD
METAR EHKD
EHKD 090755Z AUTO 18012KT 9999 FEW015CB SCT024 BKN032 03/02 Q1000 REDZ WHT TEMPO 4500 SHRA FEW007 SCT015 SCT018CB BKN020=
EHKD 090725Z AUTO 17012KT 9999 -RA FEW015CB SCT017 BKN020 OVC026 03/02 Q0999 RERA REDZ WHT TEMPO 4500 SHRA FEW007 SCT015 SCT018CB BKN020=
EHKD 090655Z AUTO 18013KT 9999 DZ FEW015CB SCT024 BKN032 03/02 Q0999 WHT TEMPO 4500 SHRA FEW007 SCT015 SCT018CB BKN020=
EHKD 090625Z AUTO 17012KT 9999 FEW015CB BKN032 OVC038 03/01 Q0999 BLU TEMPO 4500 SHRA FEW007 SCT015 SCT018CB BKN020=
EHKD 090555Z AUTO 17012KT 9999 BKN062 OVC068 03/01 Q0999 BLU TEMPO 4500 SHRA FEW007 SCT015 SCT018CB BKN020=
WC EHKD
WS EHKD
WV EHKD